Time;durP1;ratioP1;P1;durP2;ratioP2;P2;SDS_P1;SDS_P2;PMS_P1;PMS_P2;Temp;Humidity;BMP_temperature;BMP_pressure;BME280_temperature;BME280_humidity;BME280_pressure;Samples;Min_cycle;Max_cycle;Signal;HPM_P1;HPM_P2
2024/03/02 00:00:25;;;;;;;52.67;27.55;;;;;;;4.59;61.44;101252.66;4977489;28;20049;-74
2024/03/02 00:02:52;;;;;;;62.50;29.75;;;;;;;4.70;61.21;101260.81;4956053;28;20074;-74
2024/03/02 00:05:20;;;;;;;58.22;27.70;;;;;;;4.69;61.56;101244.47;4996343;28;20038;-77
2024/03/02 00:07:58;;;;;;;58.55;28.35;;;;;;;4.41;61.60;101220.19;4990307;28;20034;-77
2024/03/02 00:10:39;;;;;;;51.25;27.15;;;;;;;4.21;60.43;101202.25;4988966;28;20049;-75
2024/03/02 00:13:13;;;;;;;55.20;26.48;;;;;;;3.98;61.45;101203.03;4976333;28;20041;-77
2024/03/02 00:15:54;;;;;;;54.63;27.75;;;;;;;3.93;61.74;101177.09;4960097;28;20046;-77
2024/03/02 00:18:26;;;;;;;56.97;27.40;;;;;;;4.60;61.56;101246.69;4943751;28;20034;-76
2024/03/02 00:20:56;;;;;;;54.42;26.92;;;;;;;4.26;61.21;101180.94;4944249;28;20034;-76
2024/03/02 00:23:23;;;;;;;51.13;26.42;;;;;;;4.67;61.17;101231.50;4981905;28;20042;-77
2024/03/02 00:25:55;;;;;;;53.97;26.75;;;;;;;4.32;60.96;101178.59;4960334;28;20064;-78
2024/03/02 00:28:24;;;;;;;56.17;25.77;;;;;;;4.07;60.24;101175.94;4961337;28;20054;-77
2024/03/02 00:31:05;;;;;;;56.95;25.95;;;;;;;3.98;60.34;101205.59;4975994;28;20038;-76
2024/03/02 00:33:36;;;;;;;53.55;25.40;;;;;;;3.83;61.93;101174.94;4959491;28;20056;-73
2024/03/02 00:36:04;;;;;;;51.78;26.05;;;;;;;4.18;61.40;101214.16;4975385;28;20133;-73
2024/03/02 00:38:31;;;;;;;51.20;26.33;;;;;;;4.30;61.99;101211.19;4960523;28;20053;-74
2024/03/02 00:41:01;;;;;;;57.30;26.90;;;;;;;4.12;60.66;101186.41;4976256;28;20148;-74
2024/03/02 00:44:03;;;;;;;59.80;27.58;;;;;;;4.45;61.87;101246.97;4973552;28;20034;-73
2024/03/02 00:46:33;;;;;;;58.05;27.67;;;;;;;4.52;61.24;101255.00;4956741;28;20524;-74
2024/03/02 00:49:01;;;;;;;51.40;27.23;;;;;;;4.27;61.58;101198.16;4988363;28;20054;-75
2024/03/02 00:51:30;;;;;;;58.47;29.75;;;;;;;4.15;61.36;101173.66;4994130;28;20050;-72
2024/03/02 00:54:00;;;;;;;55.22;29.48;;;;;;;4.26;61.41;101191.25;4958537;28;20179;-73
2024/03/02 00:56:27;;;;;;;56.83;29.33;;;;;;;3.95;61.37;101175.47;4975855;28;20045;-73
2024/03/02 00:58:53;;;;;;;59.75;30.27;;;;;;;4.40;61.28;101251.94;4959367;28;20050;-76
2024/03/02 01:01:19;;;;;;;57.55;28.90;;;;;;;4.21;61.41;101204.81;4976648;28;20559;-75
2024/03/02 01:03:47;;;;;;;56.40;28.23;;;;;;;4.25;61.00;101213.53;4959092;28;20037;-75
2024/03/02 01:06:13;;;;;;;59.17;28.05;;;;;;;4.44;61.28;101237.47;4980052;28;20519;-74
2024/03/02 01:08:39;;;;;;;53.90;28.05;;;;;;;3.94;61.23;101165.06;4978935;28;20057;-74
2024/03/02 01:11:05;;;;;;;55.92;27.80;;;;;;;4.26;60.63;101229.91;4978066;28;20140;-74
2024/03/02 01:13:32;;;;;;;57.53;27.45;;;;;;;4.41;61.23;101260.56;4975714;28;20121;-73
2024/03/02 01:15:58;;;;;;;52.83;26.35;;;;;;;4.18;61.15;101217.59;4976380;28;20045;-74
2024/03/02 01:18:25;;;;;;;58.92;27.73;;;;;;;4.22;61.09;101241.78;4962942;28;20034;-76
2024/03/02 01:20:55;;;;;;;60.30;26.90;;;;;;;4.09;61.17;101209.47;4970831;28;20045;-75
2024/03/02 01:23:23;;;;;;;53.05;26.20;;;;;;;4.46;61.54;101264.19;4979748;28;20124;-75
2024/03/02 01:25:50;;;;;;;49.85;25.58;;;;;;;4.22;61.18;101240.09;4979207;28;20049;-72
2024/03/02 01:28:17;;;;;;;53.50;26.77;;;;;;;4.38;61.68;101269.03;4979134;28;20377;-72
2024/03/02 01:30:43;;;;;;;54.47;26.35;;;;;;;4.45;61.45;101271.06;4977513;28;20046;-75
2024/03/02 01:33:09;;;;;;;52.72;24.80;;;;;;;4.47;61.98;101271.09;4978270;28;20154;-74
2024/03/02 01:35:38;;;;;;;53.55;26.00;;;;;;;4.51;61.26;101279.03;4962122;28;20050;-74
2024/03/02 01:38:07;;;;;;;48.33;25.48;;;;;;;4.19;61.19;101198.72;4963193;28;20125;-74
2024/03/02 01:40:37;;;;;;;55.58;24.10;;;;;;;4.49;61.13;101244.59;4998378;28;20484;-74
2024/03/02 01:43:04;;;;;;;52.20;25.63;;;;;;;4.33;60.78;101226.72;4961565;28;20125;-74
2024/03/02 01:45:32;;;;;;;50.50;25.08;;;;;;;4.19;61.10;101211.63;4968790;28;20038;-76
2024/03/02 01:47:59;;;;;;;53.17;25.23;;;;;;;4.47;60.67;101247.91;4970486;28;20509;-74
2024/03/02 01:50:31;;;;;;;53.35;26.85;;;;;;;3.99;61.11;101169.59;4963321;28;20561;-74
2024/03/02 01:52:57;;;;;;;54.17;26.50;;;;;;;4.16;60.63;101214.06;4963156;28;20097;-74
2024/03/02 01:55:24;;;;;;;54.13;25.35;;;;;;;4.44;60.93;101258.97;4978936;28;20042;-73
2024/03/02 01:57:51;;;;;;;55.90;27.00;;;;;;;4.44;60.78;101253.81;4958232;28;20126;-73
2024/03/02 02:00:18;;;;;;;54.65;25.38;;;;;;;4.43;60.86;101264.97;4956379;28;20098;-72
2024/03/02 02:02:44;;;;;;;47.15;23.23;;;;;;;4.45;60.76;101272.72;4961477;28;20046;-73
2024/03/02 02:05:13;;;;;;;57.22;25.95;;;;;;;4.28;61.56;101249.75;4962014;28;20046;-74
2024/03/02 02:07:43;;;;;;;46.40;23.88;;;;;;;4.47;60.87;101279.72;4975555;28;20126;-74
2024/03/02 02:10:10;;;;;;;48.15;23.60;;;;;;;4.35;60.78;101254.34;4978854;28;20657;-74
2024/03/02 02:12:38;;;;;;;46.00;24.10;;;;;;;4.52;60.76;101285.94;4973775;28;20038;-72
2024/03/02 02:15:24;;;;;;;60.53;25.83;;;;;;;4.50;61.06;101271.22;4961981;28;20138;-73
2024/03/02 02:17:54;;;;;;;62.65;25.50;;;;;;;4.53;61.32;101261.91;4996742;28;20038;-73
2024/03/02 02:20:40;;;;;;;53.50;24.88;;;;;;;4.48;61.23;101258.28;4981619;28;20058;-75
2024/03/02 02:23:09;;;;;;;54.00;25.23;;;;;;;4.67;60.96;101272.75;4979745;28;20046;-74
2024/03/02 02:25:35;;;;;;;53.17;25.40;;;;;;;4.79;60.72;101281.81;4946737;28;20416;-75
2024/03/02 02:28:02;;;;;;;44.47;23.40;;;;;;;4.12;60.11;101189.00;4980069;28;20745;-76
2024/03/02 02:30:30;;;;;;;47.10;23.83;;;;;;;3.53;59.54;101148.00;4976406;28;20133;-74
2024/03/02 02:32:57;;;;;;;49.03;24.05;;;;;;;3.86;60.28;101270.38;4978370;28;20038;-75
2024/03/02 02:35:24;;;;;;;49.97;24.05;;;;;;;3.67;60.55;101267.00;4979144;28;20049;-75
2024/03/02 02:37:51;;;;;;;48.90;25.65;;;;;;;3.65;61.35;101294.38;4990010;28;20061;-74
2024/03/02 02:40:20;;;;;;;57.47;26.77;;;;;;;3.26;61.04;101237.78;4979456;28;20038;-72
2024/03/02 02:42:47;;;;;;;53.15;27.38;;;;;;;3.33;61.71;101277.53;4976013;28;20101;-73
2024/03/02 02:45:14;;;;;;;56.92;27.33;;;;;;;3.57;62.02;101283.75;4980939;28;20037;-74
2024/03/02 02:47:44;;;;;;;59.78;28.30;;;;;;;3.55;62.68;101267.38;4974168;28;20069;-72
2024/03/02 02:50:11;;;;;;;58.42;27.70;;;;;;;3.71;62.23;101263.75;4974132;28;20539;-71
2024/03/02 02:52:40;;;;;;;54.42;26.40;;;;;;;3.72;61.60;101280.97;4961225;28;20046;-72
2024/03/02 02:55:11;;;;;;;56.88;27.23;;;;;;;3.45;61.92;101267.75;4990372;28;20067;-72
2024/03/02 02:57:41;;;;;;;59.83;27.05;;;;;;;3.46;61.59;101282.41;4971292;28;20030;-71
2024/03/02 03:00:16;;;;;;;58.53;28.58;;;;;;;3.38;63.15;101258.03;4977061;28;20048;-72
2024/03/02 03:02:42;;;;;;;52.72;25.75;;;;;;;3.69;62.55;101285.09;4972988;28;20491;-72
2024/03/02 03:05:11;;;;;;;60.78;25.90;;;;;;;3.66;63.18;101257.53;4977536;28;20044;-71
2024/03/02 03:07:39;;;;;;;58.45;27.27;;;;;;;3.77;62.48;101284.59;4996629;28;20124;-75
2024/03/02 03:10:07;;;;;;;53.90;26.70;;;;;;;3.31;62.82;101228.59;4995114;28;20485;-75
2024/03/02 03:12:34;;;;;;;54.70;26.30;;;;;;;3.72;63.40;101292.94;4963798;28;20479;-76
2024/03/02 03:15:01;;;;;;;54.17;25.20;;;;;;;3.04;63.32;101177.69;4961421;28;20100;-76
2024/03/02 03:17:28;;;;;;;59.78;26.38;;;;;;;3.82;62.57;101292.53;4991463;28;20046;-76
2024/03/02 03:19:54;;;;;;;55.10;25.92;;;;;;;3.79;63.30;101279.53;4953390;28;20058;-72
2024/03/02 03:22:20;;;;;;;52.08;26.13;;;;;;;3.85;62.40;101291.78;4965905;28;20049;-75
2024/03/02 03:24:47;;;;;;;58.65;27.75;;;;;;;3.48;63.13;101229.28;4950354;28;20046;-78
2024/03/02 03:27:13;;;;;;;55.25;25.92;;;;;;;3.61;62.45;101235.84;4980256;28;20081;-73
2024/03/02 03:29:40;;;;;;;58.00;27.58;;;;;;;3.71;62.91;101244.84;4939108;28;20137;-74
2024/03/02 03:32:06;;;;;;;59.72;27.70;;;;;;;4.04;62.83;101280.56;4966961;28;20084;-74
2024/03/02 03:34:33;;;;;;;57.58;27.25;;;;;;;3.42;62.74;101182.72;4983983;28;20043;-76
2024/03/02 03:37:00;;;;;;;61.50;29.95;;;;;;;3.71;62.19;101237.13;4964676;28;20042;-75
2024/03/02 03:39:26;;;;;;;64.65;29.20;;;;;;;3.54;62.16;101239.88;4950512;28;20042;-73
2024/03/02 03:41:52;;;;;;;62.97;27.65;;;;;;;3.60;61.99;101267.56;4950549;28;20052;-74
2024/03/02 03:44:18;;;;;;;56.40;27.52;;;;;;;3.23;62.76;101240.22;4967289;28;20128;-72
2024/03/02 03:46:44;;;;;;;65.32;32.33;;;;;;;3.26;63.04;101225.78;4948207;28;20042;-73
2024/03/02 03:49:12;;;;;;;80.70;35.33;;;;;;;3.41;62.78;101224.72;4955574;28;20133;-73
2024/03/02 03:51:38;;;;;;;55.88;28.13;;;;;;;3.66;62.96;101256.63;4945915;28;20513;-73
2024/03/02 03:54:04;;;;;;;62.67;29.23;;;;;;;3.79;62.93;101261.50;4946306;28;20127;-73
2024/03/02 03:56:30;;;;;;;59.90;27.90;;;;;;;3.73;63.48;101238.06;4965829;28;20585;-74
2024/03/02 03:58:56;;;;;;;62.40;27.02;;;;;;;4.07;62.52;101288.44;4967004;28;20049;-75
2024/03/02 04:01:22;;;;;;;55.50;27.77;;;;;;;3.90;62.74;101254.22;4967767;28;20050;-72
2024/03/02 04:03:49;;;;;;;61.80;28.65;;;;;;;4.07;62.70;101272.97;4963323;28;20412;-72
2024/03/02 04:06:17;;;;;;;57.42;26.48;;;;;;;3.63;62.12;101216.19;4965165;28;20098;-72
2024/03/02 04:08:45;;;;;;;55.65;29.00;;;;;;;3.53;62.42;101204.63;4966555;28;20083;-72
2024/03/02 04:11:11;;;;;;;64.32;28.95;;;;;;;3.58;62.43;101216.03;4934058;28;20050;-72
2024/03/02 04:13:37;;;;;;;65.03;28.95;;;;;;;4.11;62.27;101285.13;4954402;28;20212;-71
2024/03/02 04:16:04;;;;;;;62.97;27.92;;;;;;;3.85;62.73;101230.88;4934218;28;20042;-71
2024/03/02 04:18:32;;;;;;;61.20;29.95;;;;;;;4.10;62.89;101267.91;4954545;28;20053;-72
2024/03/02 04:21:01;;;;;;;58.78;28.92;;;;;;;4.25;62.73;101279.69;4983576;28;20042;-72
2024/03/02 04:23:28;;;;;;;60.45;29.02;;;;;;;4.08;61.94;101259.28;4958397;28;20092;-72
2024/03/02 04:25:54;;;;;;;61.08;30.33;;;;;;;3.90;61.95;101247.38;4977362;28;20042;-71
2024/03/02 04:28:20;;;;;;;66.18;29.75;;;;;;;3.59;61.56;101217.78;4990905;28;20081;-70
2024/03/02 04:30:47;;;;;;;71.32;32.40;;;;;;;3.83;61.59;101294.31;4971900;28;20538;-71
2024/03/02 04:33:16;;;;;;;68.97;31.55;;;;;;;3.42;62.15;101231.63;4959288;28;20038;-71
2024/03/02 04:35:42;;;;;;;67.57;32.83;;;;;;;3.28;62.02;101216.44;4971617;28;20112;-73
2024/03/02 04:38:08;;;;;;;68.60;32.78;;;;;;;3.65;62.51;101275.47;4975633;28;20180;-73
2024/03/02 04:40:34;;;;;;;73.85;33.45;;;;;;;3.78;62.86;101280.34;4958326;28;20046;-74
2024/03/02 04:43:00;;;;;;;77.55;33.65;;;;;;;3.81;62.42;101280.47;4965006;28;20038;-73
2024/03/02 04:45:26;;;;;;;68.00;35.00;;;;;;;3.67;61.78;101266.13;4955507;28;20060;-73
2024/03/02 04:47:53;;;;;;;70.28;33.28;;;;;;;3.25;62.61;101221.47;4975752;28;20038;-73
2024/03/02 04:50:19;;;;;;;62.10;32.55;;;;;;;3.61;62.77;101280.50;4960090;28;20121;-72
2024/03/02 04:52:45;;;;;;;64.20;30.75;;;;;;;3.80;62.63;101293.28;4974921;28;20046;-72
2024/03/02 04:57:46;;;;;;;66.90;31.85;;;;;;;3.61;62.66;101292.50;4959142;28;20128;-73
2024/03/02 05:00:12;;;;;;;62.83;31.85;;;;;;;3.52;63.36;101267.22;4976212;28;20539;-72
2024/03/02 05:02:39;;;;;;;65.95;32.00;;;;;;;3.77;62.91;101283.72;4955321;28;20038;-73
2024/03/02 05:05:05;;;;;;;67.90;33.05;;;;;;;3.47;62.13;101282.47;4975546;28;20050;-73
2024/03/02 05:07:31;;;;;;;72.35;33.38;;;;;;;3.67;62.85;101294.44;4966234;28;20485;-74
2024/03/02 05:09:57;;;;;;;71.50;32.10;;;;;;;3.35;63.18;101238.19;4975613;28;20132;-73
2024/03/02 05:12:55;;;;;;;61.35;29.05;;;;;;;3.81;63.27;101305.34;4960643;28;20291;-74
2024/03/02 05:15:15;;;;;;;70.60;31.55;;;;;;;3.81;62.93;101302.75;4975099;28;20046;-74
2024/03/02 05:17:45;;;;;;;67.07;31.48;;;;;;;3.41;63.25;101228.16;4977531;28;20042;-75
2024/03/02 05:20:14;;;;;;;65.28;31.85;;;;;;;3.79;63.42;101268.34;4970807;28;20052;-76
2024/03/02 05:22:41;;;;;;;71.85;32.10;;;;;;;3.47;62.89;101209.53;4974215;28;20042;-74
2024/03/02 05:25:09;;;;;;;69.45;33.28;;;;;;;3.77;62.70;101248.56;4943311;28;20050;-73
2024/03/02 05:27:35;;;;;;;72.90;32.42;;;;;;;3.51;62.16;101218.28;4975950;28;20480;-74
2024/03/02 05:30:02;;;;;;;70.03;32.53;;;;;;;3.89;62.12;101294.53;4961572;28;20050;-74
2024/03/02 05:32:30;;;;;;;66.03;32.40;;;;;;;3.71;63.06;101271.50;4958716;28;20043;-75
2024/03/02 05:34:56;;;;;;;61.70;31.30;;;;;;;3.91;63.14;101308.38;4959140;28;20042;-73
2024/03/02 05:37:22;;;;;;;64.80;32.20;;;;;;;3.74;63.10;101214.06;4992651;28;20093;-74
2024/03/02 05:39:49;;;;;;;64.35;31.95;;;;;;;4.30;63.37;101279.03;4992680;28;20408;-75
2024/03/02 05:42:16;;;;;;;64.82;30.48;;;;;;;4.52;61.65;101290.22;4950744;28;20046;-76
2024/03/02 05:44:43;;;;;;;67.55;32.08;;;;;;;4.35;61.82;101256.03;4993021;28;20050;-73
2024/03/02 05:47:11;;;;;;;66.20;31.08;;;;;;;4.64;62.00;101277.78;4976647;28;20096;-73
2024/03/02 05:49:38;;;;;;;70.32;32.60;;;;;;;5.08;61.92;101284.59;4972794;28;20052;-74
2024/03/02 05:52:04;;;;;;;68.95;32.85;;;;;;;5.45;62.30;101285.06;4959509;28;20496;-76
2024/03/02 05:54:30;;;;;;;65.72;34.08;;;;;;;5.39;61.18;101224.66;4990301;28;20507;-74
2024/03/02 05:56:56;;;;;;;63.50;32.35;;;;;;;6.09;61.20;101291.63;4978756;28;20037;-72
2024/03/02 05:59:23;;;;;;;68.45;34.90;;;;;;;6.08;60.10;101268.28;4961949;28;20114;-74
2024/03/02 06:01:51;;;;;;;63.80;33.10;;;;;;;6.12;60.09;101273.63;4988191;28;20361;-73
2024/03/02 06:04:20;;;;;;;66.50;32.20;;;;;;;6.10;59.23;101295.06;4979224;28;20038;-72
2024/03/02 06:06:49;;;;;;;67.78;31.52;;;;;;;5.60;59.01;101243.41;4946205;28;20101;-73
2024/03/02 06:09:16;;;;;;;57.13;29.92;;;;;;;6.03;59.24;101300.06;4976471;28;20046;-71
2024/03/02 06:11:42;;;;;;;64.05;31.23;;;;;;;5.88;58.75;101286.56;4947016;28;20602;-74
2024/03/02 06:14:11;;;;;;;59.63;31.88;;;;;;;5.78;59.00;101256.09;4955128;28;20050;-74
2024/03/02 06:16:37;;;;;;;64.68;32.40;;;;;;;6.17;58.44;101322.88;4972682;28;20034;-75
2024/03/02 06:19:04;;;;;;;64.18;33.63;;;;;;;5.78;58.62;101248.34;4959860;28;20062;-75
2024/03/02 06:21:30;;;;;;;61.65;31.55;;;;;;;5.95;58.13;101278.19;4974858;28;20042;-74
2024/03/02 06:23:57;;;;;;;66.35;31.50;;;;;;;5.87;58.10;101233.13;4957770;28;20036;-74
2024/03/02 06:26:23;;;;;;;57.55;29.38;;;;;;;6.35;57.46;101314.88;4995221;28;20070;-80
2024/03/02 06:28:49;;;;;;;56.78;29.42;;;;;;;5.90;57.27;101251.31;4979446;28;20038;-75
2024/03/02 06:31:18;;;;;;;58.95;30.20;;;;;;;6.37;57.05;101309.75;4995620;28;20061;-72
2024/03/02 06:33:47;;;;;;;57.95;30.65;;;;;;;5.98;55.78;101277.41;4957459;28;20072;-73
2024/03/02 06:36:15;;;;;;;56.53;30.55;;;;;;;5.51;56.35;101249.13;4947367;28;20096;-74
2024/03/02 06:38:42;;;;;;;54.88;29.20;;;;;;;5.72;57.64;101267.97;4967715;28;20128;-72
2024/03/02 06:41:08;;;;;;;50.95;27.90;;;;;;;6.07;56.90;101311.38;4990961;28;20057;-73
2024/03/02 06:43:38;;;;;;;57.63;29.63;;;;;;;6.06;56.78;101312.19;4991713;28;21260;-72
2024/03/02 06:46:06;;;;;;;56.45;30.00;;;;;;;6.19;56.86;101305.72;4973543;28;20452;-76
2024/03/02 06:48:32;;;;;;;50.92;28.10;;;;;;;6.13;56.93;101272.81;4977659;28;20074;-75
2024/03/02 06:50:58;;;;;;;47.17;24.98;;;;;;;6.16;56.39;101277.19;4964831;28;20048;-75
2024/03/02 06:53:27;;;;;;;52.58;26.88;;;;;;;5.93;56.12;101308.28;4995562;28;20386;-75
2024/03/02 06:55:56;;;;;;;50.38;25.92;;;;;;;5.34;56.15;101231.34;4968376;28;20045;-73
2024/03/02 06:58:22;;;;;;;50.22;25.83;;;;;;;5.67;55.90;101295.31;4945676;28;20485;-74
2024/03/02 07:00:48;;;;;;;48.15;24.73;;;;;;;5.69;55.78;101301.44;4973535;28;20505;-73
2024/03/02 07:03:14;;;;;;;53.50;28.02;;;;;;;5.70;55.55;101287.69;4976320;28;20034;-72
2024/03/02 07:05:45;;;;;;;54.42;27.33;;;;;;;5.98;56.84;101249.88;4977927;28;20045;-75
2024/03/02 07:08:14;;;;;;;53.92;28.02;;;;;;;7.53;57.04;101295.06;4961125;28;20398;-73
2024/03/02 07:10:40;;;;;;;59.13;31.48;;;;;;;8.78;56.48;101226.38;4953180;28;20453;-75
2024/03/02 07:13:06;;;;;;;58.70;30.67;;;;;;;11.74;55.76;101296.03;4960995;28;21720;-76
2024/03/02 07:18:41;;;;;;;49.55;28.40;;;;;;;16.22;48.69;101277.28;4886465;29;20045;-74
2024/03/02 07:21:09;;;;;;;41.83;27.45;;;;;;;16.67;44.46;101255.81;4945838;28;20417;-70
2024/03/02 07:23:35;;;;;;;54.63;29.23;;;;;;;15.94;43.32;101262.66;4978478;28;20227;-74
2024/03/02 07:26:03;;;;;;;46.75;29.10;;;;;;;15.81;42.17;101277.59;4995065;28;20155;-74
2024/03/02 07:28:29;;;;;;;41.92;25.98;;;;;;;15.65;40.91;101281.19;4978129;28;20038;-75
2024/03/02 07:31:02;;;;;;;41.08;25.15;;;;;;;14.66;41.64;101274.59;4962180;28;20049;-73
2024/03/02 07:33:28;;;;;;;45.00;25.27;;;;;;;14.86;41.44;101273.72;4995341;28;20046;-74
2024/03/02 07:35:55;;;;;;;40.05;26.63;;;;;;;14.56;40.35;101251.91;4966154;28;20600;-75
2024/03/02 07:38:22;;;;;;;42.03;25.23;;;;;;;15.13;40.87;101275.34;4998072;28;20127;-74
2024/03/02 07:40:52;;;;;;;39.20;25.17;;;;;;;16.00;40.23;101243.34;4994930;28;20096;-73
2024/03/02 07:43:21;;;;;;;36.35;24.45;;;;;;;16.04;38.49;101239.81;4962535;28;20074;-75
2024/03/02 07:45:48;;;;;;;38.63;24.40;;;;;;;15.76;37.80;101281.13;4981781;28;20053;-74
2024/03/02 07:48:20;;;;;;;37.78;24.65;;;;;;;15.25;37.85;101227.22;4965770;28;20048;-75
2024/03/02 07:50:46;;;;;;;36.97;24.08;;;;;;;15.78;38.07;101269.72;4997877;28;20064;-73
2024/03/02 07:53:12;;;;;;;40.58;25.63;;;;;;;15.32;37.76;101263.03;4977509;28;20039;-75
2024/03/02 07:55:38;;;;;;;37.22;24.40;;;;;;;14.75;37.37;101268.50;4959941;28;20111;-77
2024/03/02 07:58:04;;;;;;;38.63;24.45;;;;;;;14.01;36.68;101215.34;4960953;28;20165;-78
2024/03/02 08:00:30;;;;;;;41.42;25.85;;;;;;;13.62;37.58;101264.16;4961060;28;20038;-76
2024/03/02 08:02:56;;;;;;;42.90;27.08;;;;;;;12.56;38.43;101215.81;4946510;28;20038;-76
2024/03/02 08:05:32;;;;;;;43.95;28.48;;;;;;;12.27;39.13;101161.72;4942958;28;20038;-76
2024/03/02 08:07:58;;;;;;;42.65;27.27;;;;;;;13.91;39.22;101275.53;4975880;28;20050;-77
2024/03/02 08:10:25;;;;;;;43.72;27.25;;;;;;;14.45;37.79;101242.31;4948140;28;20035;-76
2024/03/02 08:12:50;;;;;;;42.55;26.55;;;;;;;14.86;38.13;101206.44;4992007;28;20440;-77
2024/03/02 08:15:17;;;;;;;36.58;23.65;;;;;;;15.77;36.82;101270.59;4961264;28;20069;-76
2024/03/02 08:17:49;;;;;;;40.60;25.02;;;;;;;15.43;35.91;101248.97;4977070;28;20057;-76
2024/03/02 08:20:16;;;;;;;41.78;25.50;;;;;;;14.87;35.32;101244.88;4973511;28;20058;-74
2024/03/02 08:22:42;;;;;;;42.08;25.58;;;;;;;14.81;36.45;101251.88;4942625;28;20042;-74
2024/03/02 08:25:08;;;;;;;45.25;27.77;;;;;;;14.46;35.05;101199.53;4954808;28;20500;-73
2024/03/02 08:27:34;;;;;;;48.30;28.70;;;;;;;13.76;36.47;101193.56;4972164;28;20488;-76
2024/03/02 08:30:06;;;;;;;44.63;27.15;;;;;;;14.67;37.06;101210.88;4972688;28;20045;-83
2024/03/02 08:32:32;;;;;;;43.83;26.92;;;;;;;15.24;36.76;101264.81;4990285;28;20061;-71
2024/03/02 08:34:58;;;;;;;41.05;25.27;;;;;;;16.17;36.33;101242.31;4967630;28;20483;-72
2024/03/02 08:37:24;;;;;;;36.63;24.60;;;;;;;16.19;35.82;101240.56;4961166;28;20585;-74
2024/03/02 08:39:53;;;;;;;39.65;24.17;;;;;;;15.88;33.73;101260.06;4969114;28;20104;-74
2024/03/02 08:42:20;;;;;;;41.28;26.23;;;;;;;14.93;35.40;101262.31;4955038;28;20057;-79
2024/03/02 08:44:46;;;;;;;43.08;25.33;;;;;;;14.10;35.23;101217.06;4954332;28;20104;-78
2024/03/02 08:47:16;;;;;;;40.03;23.73;;;;;;;13.68;35.75;101214.44;4978229;28;20145;-79
2024/03/02 08:49:42;;;;;;;41.75;24.58;;;;;;;13.50;36.24;101256.28;4954164;28;20085;-80
2024/03/02 08:52:10;;;;;;;47.75;25.00;;;;;;;13.30;36.92;101223.06;4948809;28;20034;-83
2024/03/02 08:54:50;;;;;;;46.33;28.38;;;;;;;13.35;35.95;101205.66;4940447;28;20046;-79
2024/03/02 08:57:16;;;;;;;44.08;28.90;;;;;;;13.15;35.78;101213.44;4973589;28;20038;-81
2024/03/02 08:59:44;;;;;;;50.05;29.95;;;;;;;12.42;36.95;101230.53;4959517;28;20537;-83
2024/03/02 09:02:11;;;;;;;50.63;30.73;;;;;;;12.17;37.78;101205.13;4945324;28;20038;-84
2024/03/02 09:04:38;;;;;;;50.83;31.42;;;;;;;12.37;38.66;101151.34;4974573;28;20097;-78
2024/03/02 09:07:07;;;;;;;53.47;31.92;;;;;;;12.61;37.24;101201.06;4965656;28;20581;-77
2024/03/02 09:09:33;;;;;;;59.80;34.38;;;;;;;12.62;37.56;101241.09;4935802;28;20049;-80
2024/03/02 09:11:59;;;;;;;59.75;34.65;;;;;;;13.07;37.44;101280.50;4959066;28;20038;-78
2024/03/02 09:14:25;;;;;;;49.63;30.80;;;;;;;12.43;37.89;101174.88;4956287;28;20054;-83
2024/03/02 09:16:51;;;;;;;49.55;29.23;;;;;;;13.15;37.77;101270.09;4971149;28;20038;-77
2024/03/02 09:19:18;;;;;;;53.20;30.88;;;;;;;12.43;36.56;101221.84;4984792;28;20141;-79
2024/03/02 09:21:44;;;;;;;52.67;31.23;;;;;;;12.36;38.97;101194.81;4976800;28;20042;-77
2024/03/02 09:24:10;;;;;;;53.50;31.65;;;;;;;13.51;38.73;101238.00;4934131;28;20053;-77
2024/03/02 09:26:36;;;;;;;50.03;29.95;;;;;;;14.31;37.49;101265.03;4990814;28;20042;-79
2024/03/02 09:29:02;;;;;;;50.53;30.42;;;;;;;14.19;37.00;101199.63;4954188;28;20113;-79
2024/03/02 09:31:29;;;;;;;44.35;28.15;;;;;;;14.13;36.25;101264.19;4987386;28;20109;-77
2024/03/02 09:33:55;;;;;;;49.78;29.73;;;;;;;13.36;36.29;101225.72;4972520;28;20137;-76
2024/03/02 09:36:22;;;;;;;54.75;30.17;;;;;;;12.81;36.45;101242.94;4974306;28;20412;-79
2024/03/02 09:38:49;;;;;;;47.40;28.58;;;;;;;13.26;38.05;101248.34;4962196;28;20038;-75
2024/03/02 09:41:16;;;;;;;46.53;28.92;;;;;;;14.33;37.72;101223.16;4959399;28;20140;-74
2024/03/02 09:43:42;;;;;;;46.30;25.95;;;;;;;15.24;36.61;101256.94;4961231;28;20546;-74
2024/03/02 09:46:10;;;;;;;42.35;24.90;;;;;;;14.95;34.99;101250.06;4978651;28;20497;-72
2024/03/02 09:48:36;;;;;;;36.65;23.75;;;;;;;15.07;36.12;101201.97;4954480;28;20038;-73
2024/03/02 09:51:04;;;;;;;41.42;24.50;;;;;;;16.44;35.32;101221.94;4989177;28;20050;-75
2024/03/02 09:53:33;;;;;;;44.42;24.25;;;;;;;17.18;33.97;101236.84;4976602;28;20042;-76
2024/03/02 09:56:00;;;;;;;36.42;22.95;;;;;;;17.49;33.88;101241.66;4995766;28;20046;-74
2024/03/02 09:58:26;;;;;;;41.60;24.58;;;;;;;17.54;33.08;101244.25;4995528;28;20539;-74
2024/03/02 10:00:52;;;;;;;40.08;24.85;;;;;;;17.05;31.99;101230.00;4994559;28;20500;-75
2024/03/02 10:03:19;;;;;;;42.08;24.55;;;;;;;16.60;32.67;101243.66;4977867;28;20030;-75
2024/03/02 10:05:45;;;;;;;39.05;23.40;;;;;;;15.60;32.59;101209.53;4977036;28;20061;-71
2024/03/02 10:08:11;;;;;;;45.78;26.60;;;;;;;15.41;33.81;101217.53;4979430;28;20057;-72
2024/03/02 10:10:44;;;;;;;37.85;24.75;;;;;;;15.34;33.93;101227.16;4976645;28;20535;-76
2024/03/02 10:13:12;;;;;;;40.92;24.25;;;;;;;15.12;33.67;101191.44;4976052;28;20038;-74
2024/03/02 10:15:42;;;;;;;40.22;24.88;;;;;;;15.65;34.99;101237.44;4960941;28;20089;-75
2024/03/02 10:18:13;;;;;;;40.58;24.77;;;;;;;16.92;33.32;101180.19;4965260;28;20046;-79
2024/03/02 10:20:41;;;;;;;39.72;24.90;;;;;;;16.95;32.82;101210.81;4995765;28;20050;-76
2024/03/02 10:23:11;;;;;;;38.08;24.75;;;;;;;16.51;33.19;101234.97;4962609;28;20050;-77
2024/03/02 10:25:38;;;;;;;40.88;25.48;;;;;;;15.47;32.19;101178.09;4948846;28;20045;-78
2024/03/02 10:28:07;;;;;;;40.25;25.27;;;;;;;14.81;32.83;101209.97;4960993;28;20563;-74
2024/03/02 10:30:34;;;;;;;39.08;23.50;;;;;;;14.21;33.43;101198.75;4958126;28;20120;-73
2024/03/02 10:33:03;;;;;;;43.15;25.77;;;;;;;13.95;34.53;101183.94;4976424;28;20046;-75
2024/03/02 10:35:36;;;;;;;39.58;24.45;;;;;;;14.24;34.15;101248.47;4939821;28;20128;-75
2024/03/02 10:38:06;;;;;;;38.30;24.27;;;;;;;13.86;35.39;101259.84;4977721;28;21353;-74
2024/03/02 10:40:32;;;;;;;38.50;23.60;;;;;;;13.44;34.38;101244.06;4976134;28;20068;-76
2024/03/02 10:43:02;;;;;;;37.40;23.38;;;;;;;13.20;35.87;101222.19;4962097;28;20046;-74
2024/03/02 10:45:29;;;;;;;38.10;23.17;;;;;;;12.98;35.38;101230.81;4995049;28;20061;-76
2024/03/02 10:47:56;;;;;;;36.00;22.23;;;;;;;11.89;35.23;101193.59;4961951;28;20046;-77
2024/03/02 10:50:24;;;;;;;36.78;23.25;;;;;;;12.21;36.69;101260.84;4927354;28;20255;-74
2024/03/02 10:52:51;;;;;;;39.22;22.98;;;;;;;12.16;37.61;101244.28;4957813;28;20193;-75
2024/03/02 10:55:18;;;;;;;39.80;24.45;;;;;;;12.67;37.40;101248.97;4976215;28;20042;-75
2024/03/02 10:57:56;;;;;;;35.83;23.48;;;;;;;12.28;36.90;101230.44;4946352;28;20050;-75
2024/03/02 11:00:29;;;;;;;37.95;23.00;;;;;;;12.41;37.53;101236.63;4962744;28;20480;-75
2024/03/02 11:02:58;;;;;;;33.90;22.20;;;;;;;11.54;36.46;101212.44;4978158;28;20084;-74
2024/03/02 11:05:30;;;;;;;37.08;21.40;;;;;;;11.20;37.29;101253.75;4973636;28;20050;-74
2024/03/02 11:08:13;;;;;;;40.35;22.00;;;;;;;10.52;38.49;101197.34;4970712;28;20410;-73
2024/03/02 11:10:51;;;;;;;40.03;22.80;;;;;;;10.53;38.82;101263.31;4972886;28;20602;-73
2024/03/02 11:13:24;;;;;;;34.38;21.15;;;;;;;10.10;39.80;101248.75;4971473;28;20038;-73
2024/03/02 11:16:12;;;;;;;36.75;20.55;;;;;;;10.09;39.43;101244.41;4976940;28;20049;-73
2024/03/02 11:18:40;;;;;;;34.00;18.67;;;;;;;9.87;39.15;101195.50;4955657;28;20033;-74
2024/03/02 11:21:06;;;;;;;35.17;19.98;;;;;;;10.19;39.19;101255.84;4974192;28;20180;-74
2024/03/02 11:23:34;;;;;;;32.85;19.17;;;;;;;10.09;40.09;101233.13;4952422;28;20034;-76